createdAt,value
2022-11-07T00:00:50.671Z,14.25
2022-11-07T00:03:21.080Z,14.13
2022-11-07T00:05:51.670Z,13.20
2022-11-07T00:08:32.066Z,11.70
2022-11-07T00:11:03.070Z,8.38
2022-11-07T00:13:33.896Z,6.90
2022-11-07T00:16:07.480Z,5.85
2022-11-07T00:18:38.343Z,5.45
2022-11-07T00:21:10.813Z,6.60
2022-11-07T00:23:42.268Z,5.13
2022-11-07T00:26:15.095Z,5.18
2022-11-07T00:28:45.777Z,5.43
2022-11-07T00:31:17.300Z,5.20
2022-11-07T00:33:48.211Z,5.20
2022-11-07T00:36:28.213Z,5.25
2022-11-07T00:38:58.560Z,6.85
2022-11-07T00:41:29.274Z,5.80
2022-11-07T00:44:00.006Z,6.18
2022-11-07T00:46:30.291Z,6.00
2022-11-07T00:49:00.559Z,5.07
2022-11-07T00:51:30.921Z,5.22
2022-11-07T00:54:03.388Z,5.15
2022-11-07T00:56:34.001Z,5.18
2022-11-07T00:59:04.289Z,5.18
2022-11-07T01:01:34.873Z,5.65
2022-11-07T01:04:23.907Z,5.10
2022-11-07T01:06:54.315Z,6.70
2022-11-07T01:09:24.919Z,5.45
2022-11-07T01:11:55.380Z,4.82
2022-11-07T01:14:25.980Z,7.00
2022-11-07T01:16:56.304Z,5.97
2022-11-07T01:19:26.736Z,5.22
2022-11-07T01:21:57.103Z,6.63
2022-11-07T01:24:27.518Z,5.82
2022-11-07T01:26:58.325Z,5.63
2022-11-07T01:29:28.763Z,5.15
2022-11-07T01:31:59.917Z,6.38
2022-11-07T01:34:30.071Z,6.20
2022-11-07T01:37:00.296Z,6.43
2022-11-07T01:39:30.701Z,6.88
2022-11-07T01:42:00.951Z,6.53
2022-11-07T01:44:37.151Z,6.65
2022-11-07T01:47:08.265Z,6.70
2022-11-07T01:49:41.485Z,7.03
2022-11-07T01:52:34.848Z,5.43
2022-11-07T01:55:08.258Z,7.32
2022-11-07T01:57:54.345Z,7.05
2022-11-07T02:03:09.900Z,6.45
2022-11-07T02:05:52.311Z,5.38
2022-11-07T02:08:24.860Z,6.55
2022-11-07T02:10:56.653Z,9.38
2022-11-07T02:13:29.194Z,8.98
2022-11-07T02:16:01.881Z,6.82
2022-11-07T02:18:35.382Z,8.02
2022-11-07T02:21:15.817Z,6.70
2022-11-07T02:24:01.528Z,7.40
2022-11-07T02:26:32.855Z,9.10
2022-11-07T02:29:08.193Z,7.93
2022-11-07T02:31:38.404Z,8.60
2022-11-07T02:34:08.789Z,6.45
2022-11-07T02:36:38.965Z,9.00
2022-11-07T02:39:09.503Z,8.43
2022-11-07T02:41:39.693Z,7.53
2022-11-07T02:44:12.711Z,7.43
2022-11-07T02:46:43.071Z,7.43
2022-11-07T02:49:13.492Z,7.50
2022-11-07T02:51:43.650Z,7.55
2022-11-07T02:54:13.792Z,7.85
2022-11-07T02:56:43.893Z,7.57
2022-11-07T02:59:14.079Z,9.38
2022-11-07T03:01:44.548Z,7.72
2022-11-07T03:04:14.874Z,8.90
2022-11-07T03:06:45.008Z,10.98
2022-11-07T03:09:15.222Z,10.02
2022-11-07T03:11:45.361Z,8.13
2022-11-07T03:14:15.588Z,7.35
2022-11-07T03:16:45.756Z,7.53
2022-11-07T03:19:16.054Z,9.70
2022-11-07T03:21:46.201Z,7.03
2022-11-07T03:24:16.472Z,8.65
2022-11-07T03:26:46.678Z,7.93
2022-11-07T03:29:16.825Z,7.30
2022-11-07T03:31:46.978Z,7.53
2022-11-07T03:34:17.141Z,6.57
2022-11-07T03:36:47.273Z,6.65
2022-11-07T03:39:20.604Z,8.65
2022-11-07T03:41:54.798Z,7.03
2022-11-07T03:44:24.961Z,6.78
2022-11-07T03:46:55.248Z,7.38
2022-11-07T03:49:25.336Z,8.25
2022-11-07T03:51:55.501Z,7.10
2022-11-07T03:54:25.721Z,6.63
2022-11-07T03:56:55.877Z,7.15
2022-11-07T03:59:26.114Z,7.50
2022-11-07T04:01:56.353Z,8.30
2022-11-07T04:04:26.623Z,7.10
2022-11-07T04:06:56.787Z,6.95
2022-11-07T04:09:26.958Z,7.43
2022-11-07T04:12:15.661Z,8.57
2022-11-07T04:15:04.354Z,7.55
2022-11-07T04:17:34.410Z,7.88
2022-11-07T04:20:05.141Z,7.97
2022-11-07T04:22:35.742Z,8.05
2022-11-07T04:25:06.400Z,7.85
2022-11-07T04:27:47.117Z,7.32
2022-11-07T04:30:30.085Z,6.78
2022-11-07T04:33:02.483Z,6.75
2022-11-07T04:35:33.728Z,7.85
2022-11-07T04:38:03.838Z,6.65
2022-11-07T04:40:34.069Z,7.90
2022-11-07T04:43:09.353Z,7.60
2022-11-07T04:45:39.624Z,6.97
2022-11-07T04:48:11.018Z,7.30
2022-11-07T04:50:41.989Z,7.45
2022-11-07T04:53:14.361Z,8.15
2022-11-07T04:55:44.864Z,7.45
2022-11-07T04:58:15.442Z,7.35
2022-11-07T05:00:45.541Z,7.63
2022-11-07T05:03:16.086Z,7.88
2022-11-07T05:05:46.735Z,8.38
2022-11-07T05:08:16.874Z,8.40
2022-11-07T05:10:47.013Z,11.35
2022-11-07T05:13:18.716Z,8.45
2022-11-07T05:15:50.167Z,10.75
2022-11-07T05:18:21.354Z,8.38
2022-11-07T05:20:51.648Z,9.60
2022-11-07T05:23:22.327Z,9.23
2022-11-07T05:25:53.480Z,8.30
2022-11-07T05:28:36.941Z,9.18
2022-11-07T05:31:14.783Z,9.55
2022-11-07T05:33:45.114Z,9.00
2022-11-07T05:36:21.000Z,8.43
2022-11-07T05:38:53.414Z,8.07
2022-11-07T05:41:23.615Z,9.95
2022-11-07T05:43:53.791Z,9.73
2022-11-07T05:46:23.944Z,9.07
2022-11-07T05:48:58.043Z,10.52
2022-11-07T05:51:30.897Z,8.10
2022-11-07T05:54:00.992Z,9.10
2022-11-07T05:56:31.199Z,7.55
2022-11-07T05:59:01.332Z,8.93
2022-11-07T06:01:31.668Z,8.43
2022-11-07T06:04:04.593Z,9.55
2022-11-07T06:06:35.024Z,8.07
2022-11-07T06:09:05.138Z,8.18
2022-11-07T06:11:35.731Z,9.23
2022-11-07T06:14:06.169Z,9.48
2022-11-07T06:16:36.333Z,9.00
2022-11-07T06:19:06.533Z,8.70
2022-11-07T06:21:39.567Z,8.15
2022-11-07T06:24:15.078Z,9.23
2022-11-07T06:26:45.709Z,9.13
2022-11-07T06:29:15.861Z,9.93
2022-11-07T06:31:45.997Z,7.82
2022-11-07T06:34:16.192Z,9.32
2022-11-07T06:36:54.040Z,9.40
2022-11-07T06:39:29.324Z,8.98
2022-11-07T06:41:59.481Z,8.15
2022-11-07T06:44:29.765Z,8.68
2022-11-07T06:46:59.922Z,10.27
2022-11-07T06:49:30.093Z,8.32
2022-11-07T06:52:00.173Z,9.75
2022-11-07T06:54:30.288Z,8.20
2022-11-07T06:57:00.445Z,8.55
2022-11-07T06:59:30.500Z,9.70
2022-11-07T07:02:00.811Z,12.05
2022-11-07T07:04:31.050Z,9.85
2022-11-07T07:07:01.218Z,9.20
2022-11-07T07:09:31.509Z,8.77
2022-11-07T07:12:02.136Z,9.98
2022-11-07T07:14:32.387Z,12.10
2022-11-07T07:17:02.540Z,9.85
2022-11-07T07:19:32.842Z,9.25
2022-11-07T07:22:03.029Z,10.20
2022-11-07T07:24:33.181Z,10.55
2022-11-07T07:27:03.478Z,10.02
2022-11-07T07:29:33.646Z,11.50
2022-11-07T07:32:03.781Z,11.30
2022-11-07T07:34:34.208Z,10.65
2022-11-07T07:37:04.445Z,11.35
2022-11-07T07:39:34.609Z,10.40
2022-11-07T07:42:04.835Z,9.73
2022-11-07T07:44:34.970Z,10.35
2022-11-07T07:47:10.842Z,13.18
2022-11-07T07:49:41.504Z,10.13
2022-11-07T07:52:12.793Z,13.48
2022-11-07T07:54:43.092Z,11.63
2022-11-07T07:57:13.769Z,12.82
2022-11-07T07:59:43.833Z,12.30
2022-11-07T08:02:14.243Z,12.80
2022-11-07T08:04:44.582Z,12.68
2022-11-07T08:07:14.816Z,11.48
2022-11-07T08:09:44.920Z,13.75
2022-11-07T08:12:15.076Z,13.68
2022-11-07T08:14:45.152Z,14.32
2022-11-07T08:17:15.301Z,13.07
2022-11-07T08:19:45.564Z,12.85
2022-11-07T08:22:17.468Z,15.07
2022-11-07T08:24:47.607Z,11.95
2022-11-07T08:27:17.774Z,14.10
2022-11-07T08:29:47.973Z,14.65
2022-11-07T08:32:18.253Z,13.85
2022-11-07T08:34:48.354Z,14.20
2022-11-07T08:37:18.559Z,15.15
2022-11-07T08:39:48.795Z,12.40
2022-11-07T08:42:18.898Z,13.18
2022-11-07T08:44:48.936Z,12.65
2022-11-07T08:47:19.093Z,12.25
2022-11-07T08:49:49.264Z,13.43
2022-11-07T08:52:19.451Z,12.45
2022-11-07T08:54:49.711Z,12.63
2022-11-07T08:57:19.958Z,11.73
2022-11-07T08:59:50.176Z,11.93
2022-11-07T09:05:10.673Z,10.32
2022-11-07T09:07:40.787Z,11.27
2022-11-07T09:10:11.975Z,13.13
2022-11-07T09:12:46.567Z,10.38
2022-11-07T09:15:17.946Z,12.65
2022-11-07T09:17:48.760Z,12.25
2022-11-07T09:20:19.901Z,13.68
2022-11-07T09:22:50.103Z,13.57
2022-11-07T09:25:20.330Z,15.50
2022-11-07T09:27:53.743Z,15.80
2022-11-07T09:30:24.316Z,14.65
2022-11-07T09:32:55.789Z,14.90
2022-11-07T09:35:26.028Z,13.38
2022-11-07T09:37:56.397Z,15.15
2022-11-07T09:41:02.495Z,18.10
2022-11-07T09:43:46.822Z,13.75
2022-11-07T09:46:26.325Z,15.05
2022-11-07T09:49:02.892Z,13.77
2022-11-07T09:51:37.254Z,13.20
2022-11-07T09:54:22.529Z,14.73
2022-11-07T09:56:55.065Z,15.25
2022-11-07T09:59:39.002Z,13.13
2022-11-07T10:02:17.727Z,12.95
2022-11-07T10:04:53.799Z,12.73
2022-11-07T10:07:37.140Z,14.60
2022-11-07T10:10:30.405Z,16.95
2022-11-07T10:13:20.556Z,13.68
2022-11-07T10:16:12.611Z,13.65
2022-11-07T10:18:58.772Z,16.25
2022-11-07T10:21:45.569Z,14.85
2022-11-07T10:24:21.719Z,13.93
2022-11-07T10:26:52.145Z,13.68
2022-11-07T10:29:26.812Z,14.75
2022-11-07T10:32:38.848Z,13.27
2022-11-07T10:35:24.671Z,14.77
2022-11-07T10:38:00.618Z,14.03
2022-11-07T10:40:40.432Z,14.07
2022-11-07T10:43:22.762Z,15.00
2022-11-07T10:45:54.423Z,14.38
2022-11-07T10:48:25.943Z,14.07
2022-11-07T10:50:57.265Z,12.48
2022-11-07T10:53:27.624Z,13.68
2022-11-07T10:55:58.583Z,15.15
2022-11-07T10:58:34.339Z,15.43
2022-11-07T11:01:10.744Z,16.17
2022-11-07T11:03:45.656Z,15.25
2022-11-07T11:06:22.020Z,14.88
2022-11-07T11:08:53.262Z,14.98
2022-11-07T11:11:33.081Z,16.48
2022-11-07T11:14:06.712Z,16.48
2022-11-07T11:16:39.214Z,14.45
2022-11-07T11:19:40.169Z,14.82
2022-11-07T11:22:18.349Z,14.10
2022-11-07T11:25:01.998Z,16.33
2022-11-07T11:27:35.681Z,15.23
2022-11-07T11:30:07.885Z,13.38
2022-11-07T11:32:56.658Z,14.98
2022-11-07T11:35:42.165Z,13.50
2022-11-07T11:38:19.551Z,15.38
2022-11-07T11:41:25.661Z,15.52
2022-11-07T11:46:44.987Z,11.30
2022-11-07T11:49:33.210Z,12.88
2022-11-07T11:52:17.248Z,12.23
2022-11-07T11:54:50.490Z,14.10
2022-11-07T12:00:55.163Z,12.68
2022-11-07T12:03:37.082Z,11.95
2022-11-07T12:06:26.522Z,15.13
2022-11-07T12:09:15.305Z,16.20
2022-11-07T12:12:03.199Z,13.73
2022-11-07T12:14:57.851Z,14.88
2022-11-07T12:17:54.361Z,13.68
2022-11-07T12:20:55.879Z,14.93
2022-11-07T12:23:46.230Z,13.80
2022-11-07T12:26:51.869Z,15.23
2022-11-07T12:29:27.933Z,15.45
2022-11-07T12:32:46.013Z,14.43
2022-11-07T12:35:35.881Z,14.88
2022-11-07T12:38:27.248Z,12.65
2022-11-07T12:41:24.228Z,11.57
2022-11-07T12:44:01.482Z,12.70
2022-11-07T12:47:01.173Z,12.55
2022-11-07T12:50:16.557Z,13.18
2022-11-07T12:53:12.650Z,13.02
2022-11-07T12:55:48.461Z,11.68
2022-11-07T12:58:24.153Z,11.88
2022-11-07T13:00:55.335Z,12.88
2022-11-07T13:03:53.566Z,11.85
2022-11-07T13:06:32.739Z,15.00
2022-11-07T13:09:29.348Z,13.35
2022-11-07T13:12:16.349Z,13.43
2022-11-07T13:14:47.329Z,13.30
2022-11-07T13:17:20.615Z,13.02
2022-11-07T13:20:00.379Z,15.50
2022-11-07T13:22:41.244Z,14.18
2022-11-07T13:25:16.371Z,15.20
2022-11-07T13:28:01.762Z,13.00
2022-11-07T13:30:38.388Z,15.48
2022-11-07T13:33:26.593Z,12.40
2022-11-07T13:36:15.886Z,13.88
2022-11-07T13:38:53.201Z,13.20
2022-11-07T13:41:25.058Z,13.90
2022-11-07T13:44:01.766Z,13.70
2022-11-07T13:46:37.372Z,13.55
2022-11-07T13:49:27.477Z,12.95
2022-11-07T13:52:05.994Z,13.30
2022-11-07T13:55:01.560Z,15.15
2022-11-07T13:57:51.917Z,14.25
2022-11-07T14:00:22.270Z,11.40
2022-11-07T14:02:58.496Z,12.73
2022-11-07T14:05:35.167Z,12.20
2022-11-07T14:08:18.619Z,13.98
2022-11-07T14:10:51.879Z,12.60
2022-11-07T14:13:26.746Z,13.07
2022-11-07T14:16:06.393Z,12.10
2022-11-07T14:19:04.391Z,11.32
2022-11-07T14:21:36.924Z,11.95
2022-11-07T14:24:29.017Z,15.50
2022-11-07T14:27:07.526Z,12.18
2022-11-07T14:29:37.681Z,12.93
2022-11-07T14:32:08.056Z,13.25
2022-11-07T14:34:45.247Z,11.98
2022-11-07T14:37:18.132Z,13.02
2022-11-07T14:39:49.275Z,13.02
2022-11-07T14:42:24.991Z,11.23
2022-11-07T14:44:56.579Z,10.95
2022-11-07T14:47:32.044Z,12.35
2022-11-07T14:50:03.350Z,12.68
2022-11-07T14:52:40.891Z,12.25
2022-11-07T14:55:19.095Z,11.10
2022-11-07T14:57:49.720Z,11.88
2022-11-07T15:00:22.145Z,11.80
2022-11-07T15:02:54.410Z,12.20
2022-11-07T15:05:35.693Z,12.13
2022-11-07T15:08:06.040Z,9.10
2022-11-07T15:10:39.884Z,9.50
2022-11-07T15:13:24.610Z,10.98
2022-11-07T15:16:15.047Z,11.27
2022-11-07T15:18:48.840Z,10.60
2022-11-07T15:21:35.129Z,10.77
2022-11-07T15:24:25.926Z,11.18
2022-11-07T15:27:02.889Z,12.45
2022-11-07T15:29:36.180Z,12.13
2022-11-07T15:32:29.523Z,12.30
2022-11-07T15:35:17.533Z,11.85
2022-11-07T15:38:00.427Z,11.70
2022-11-07T15:40:31.080Z,11.55
2022-11-07T15:43:01.260Z,10.90
2022-11-07T15:45:31.463Z,14.88
2022-11-07T15:48:01.802Z,13.00
2022-11-07T15:50:41.893Z,12.95
2022-11-07T15:53:18.141Z,11.88
2022-11-07T15:55:53.140Z,10.77
2022-11-07T15:58:29.185Z,12.43
2022-11-07T16:00:59.957Z,11.13
2022-11-07T16:03:32.112Z,12.00
2022-11-07T16:06:02.656Z,10.75
2022-11-07T16:08:35.476Z,13.15
2022-11-07T16:11:11.593Z,11.48
2022-11-07T16:13:41.808Z,10.82
2022-11-07T16:16:21.459Z,13.10
2022-11-07T16:18:53.379Z,10.18
2022-11-07T16:21:23.755Z,12.23
2022-11-07T16:23:53.919Z,10.48
2022-11-07T16:26:28.542Z,10.63
2022-11-07T16:28:58.678Z,11.35
2022-11-07T16:31:29.367Z,9.35
2022-11-07T16:33:59.875Z,9.50
2022-11-07T16:36:35.210Z,11.57
2022-11-07T16:39:08.154Z,8.85
2022-11-07T16:41:38.316Z,7.95
2022-11-07T16:44:08.487Z,9.38
2022-11-07T16:46:38.961Z,8.90
2022-11-07T16:49:22.760Z,9.15
2022-11-07T16:51:52.903Z,8.15
2022-11-07T16:54:23.111Z,9.10
2022-11-07T16:56:53.434Z,7.60
2022-11-07T16:59:24.709Z,8.07
2022-11-07T17:01:55.069Z,9.20
2022-11-07T17:04:25.303Z,8.77
2022-11-07T17:06:55.434Z,8.35
2022-11-07T17:09:28.099Z,8.43
2022-11-07T17:11:58.195Z,9.05
2022-11-07T17:14:28.614Z,11.30
2022-11-07T17:17:01.551Z,9.18
2022-11-07T17:19:32.075Z,9.38
2022-11-07T17:22:03.319Z,8.77
2022-11-07T17:24:33.420Z,7.63
2022-11-07T17:27:03.763Z,8.05
2022-11-07T17:29:33.922Z,8.85
2022-11-07T17:32:04.247Z,8.70
2022-11-07T17:34:34.379Z,8.02
2022-11-07T17:37:04.525Z,8.98
2022-11-07T17:39:34.618Z,9.32
2022-11-07T17:42:04.999Z,10.15
2022-11-07T17:44:35.093Z,9.23
2022-11-07T17:47:06.089Z,8.88
2022-11-07T17:49:36.227Z,10.23
2022-11-07T17:52:06.461Z,9.07
2022-11-07T17:54:36.587Z,9.90
2022-11-07T17:57:09.121Z,9.95
2022-11-07T17:59:44.778Z,10.82
2022-11-07T18:02:18.856Z,9.00
2022-11-07T18:04:49.169Z,9.30
2022-11-07T18:07:19.405Z,9.00
2022-11-07T18:09:51.723Z,9.23
2022-11-07T18:12:22.087Z,8.35
2022-11-07T18:14:52.177Z,8.93
2022-11-07T18:17:22.381Z,9.43
2022-11-07T18:19:52.555Z,9.25
2022-11-07T18:22:22.689Z,9.60
2022-11-07T18:24:52.748Z,11.38
2022-11-07T18:27:23.025Z,10.38
2022-11-07T18:29:53.107Z,10.18
2022-11-07T18:32:23.260Z,10.52
2022-11-07T18:34:53.480Z,8.52
2022-11-07T18:37:24.355Z,8.55
2022-11-07T18:39:55.092Z,8.27
2022-11-07T18:42:25.954Z,8.77
2022-11-07T18:44:56.216Z,8.60
2022-11-07T18:47:26.726Z,9.85
2022-11-07T18:49:57.582Z,10.05
2022-11-07T18:52:31.766Z,9.75
2022-11-07T18:55:01.990Z,10.90
2022-11-07T18:57:32.193Z,10.43
2022-11-07T19:00:07.906Z,10.73
2022-11-07T19:02:42.444Z,10.60
2022-11-07T19:05:12.577Z,9.95
2022-11-07T19:07:44.977Z,9.05
2022-11-07T19:10:16.538Z,9.50
2022-11-07T19:12:47.218Z,9.57
2022-11-07T19:15:17.504Z,10.10
2022-11-07T19:17:47.564Z,9.70
2022-11-07T19:20:17.762Z,10.23
2022-11-07T19:22:48.697Z,8.23
2022-11-07T19:25:22.687Z,8.20
2022-11-07T19:27:53.472Z,8.73
2022-11-07T19:30:24.883Z,7.97
2022-11-07T19:32:55.039Z,8.00
2022-11-07T19:35:25.382Z,7.90
2022-11-07T19:37:56.746Z,8.13
2022-11-07T19:40:27.148Z,7.85
2022-11-07T19:42:57.801Z,7.45
2022-11-07T19:45:28.348Z,7.47
2022-11-07T19:47:58.459Z,7.60
2022-11-07T19:50:28.644Z,7.32
2022-11-07T19:52:59.103Z,7.05
2022-11-07T19:55:29.242Z,7.57
2022-11-07T19:57:59.401Z,6.50
2022-11-07T20:00:30.753Z,8.10
2022-11-07T20:03:01.290Z,7.15
2022-11-07T20:05:34.440Z,7.93
2022-11-07T20:08:05.325Z,8.18
2022-11-07T20:10:35.689Z,8.00
2022-11-07T20:13:05.775Z,7.60
2022-11-07T20:15:39.810Z,7.82
2022-11-07T20:18:10.015Z,7.13
2022-11-07T20:20:40.124Z,6.47
2022-11-07T20:23:10.413Z,8.18
2022-11-07T20:25:42.443Z,6.47
2022-11-07T20:28:12.605Z,7.30
2022-11-07T20:30:42.801Z,6.65
2022-11-07T20:33:12.860Z,7.65
2022-11-07T20:35:43.076Z,6.43
2022-11-07T20:38:13.210Z,6.63
2022-11-07T20:40:43.333Z,6.82
2022-11-07T20:43:13.624Z,7.68
2022-11-07T20:45:44.005Z,6.22
2022-11-07T20:48:14.308Z,5.85
2022-11-07T20:50:44.750Z,8.90
2022-11-07T20:53:16.319Z,8.18
2022-11-07T20:55:47.343Z,6.78
2022-11-07T20:58:17.690Z,8.00
2022-11-07T21:00:47.871Z,7.07
2022-11-07T21:03:18.388Z,7.90
2022-11-07T21:05:51.590Z,6.95
2022-11-07T21:08:21.964Z,7.78
2022-11-07T21:10:53.730Z,6.30
2022-11-07T21:13:24.120Z,6.50
2022-11-07T21:15:54.374Z,6.97
2022-11-07T21:18:24.966Z,6.32
2022-11-07T21:20:55.401Z,7.15
2022-11-07T21:23:27.122Z,6.70
2022-11-07T21:25:57.714Z,6.45
2022-11-07T21:28:27.941Z,7.82
2022-11-07T21:31:02.948Z,12.98
2022-11-07T21:33:33.566Z,7.93
2022-11-07T21:36:08.956Z,7.00
2022-11-07T21:38:39.768Z,7.57
2022-11-07T21:41:10.617Z,7.97
2022-11-07T21:43:41.340Z,7.30
2022-11-07T21:46:18.994Z,8.00
2022-11-07T21:48:53.092Z,6.80
2022-11-07T21:51:30.524Z,7.28
2022-11-07T21:54:01.512Z,6.43
2022-11-07T21:56:37.707Z,5.90
2022-11-07T21:59:10.330Z,6.78
2022-11-07T22:01:41.135Z,7.07
2022-11-07T22:04:13.422Z,7.10
2022-11-07T22:06:45.696Z,6.75
2022-11-07T22:09:18.012Z,7.38
2022-11-07T22:11:48.853Z,7.90
2022-11-07T22:14:21.586Z,7.78
2022-11-07T22:16:55.750Z,6.63
2022-11-07T22:19:26.987Z,5.80
2022-11-07T22:21:57.374Z,5.93
2022-11-07T22:24:27.885Z,6.32
2022-11-07T22:26:58.225Z,6.30
2022-11-07T22:29:28.616Z,7.18
2022-11-07T22:32:00.610Z,6.20
2022-11-07T22:34:31.654Z,6.50
2022-11-07T22:37:01.862Z,6.95
2022-11-07T22:39:38.137Z,5.78
2022-11-07T22:42:08.263Z,7.63
2022-11-07T22:44:38.439Z,6.72
2022-11-07T22:47:08.600Z,6.25
2022-11-07T22:49:38.798Z,7.00
2022-11-07T22:52:09.022Z,6.57
2022-11-07T22:54:39.306Z,6.75
2022-11-07T22:57:11.194Z,6.15
2022-11-07T22:59:44.332Z,7.00
2022-11-07T23:02:14.594Z,7.45
2022-11-07T23:04:45.006Z,6.97
2022-11-07T23:07:15.124Z,7.63
2022-11-07T23:09:45.266Z,6.95
2022-11-07T23:12:15.432Z,6.15
2022-11-07T23:14:47.220Z,7.03
2022-11-07T23:17:17.506Z,6.40
2022-11-07T23:20:43.415Z,6.32
2022-11-07T23:23:13.609Z,6.45
2022-11-07T23:25:43.767Z,6.47
2022-11-07T23:28:14.073Z,7.88
2022-11-07T23:30:44.309Z,9.65
2022-11-07T23:33:14.496Z,9.30
2022-11-07T23:35:44.703Z,9.02
2022-11-07T23:38:15.540Z,7.82
2022-11-07T23:40:46.069Z,8.38
2022-11-07T23:43:16.178Z,10.05
2022-11-07T23:46:04.581Z,10.45
2022-11-07T23:48:53.266Z,9.52
2022-11-07T23:51:23.338Z,8.57
2022-11-07T23:54:11.940Z,10.88
2022-11-07T23:56:42.525Z,12.63
2022-11-07T23:59:31.382Z,10.68
